Time;durP1;ratioP1;P1;durP2;ratioP2;P2;SDS_P1;SDS_P2;PMS_P1;PMS_P2;Temp;Humidity;BMP_temperature;BMP_pressure;BME280_temperature;BME280_humidity;BME280_pressure;Samples;Min_cycle;Max_cycle;Signal;HPM_P1;HPM_P2
2022/08/12 00:44:23;;;;;;;1.17;0.40;;;;;;;13.10;100.00;101341.34;5011601;28;20052;-52
2022/08/12 00:46:56;;;;;;;2.88;1.00;;;;;;;13.05;100.00;101339.22;5022110;28;20026;-48
2022/08/12 00:49:23;;;;;;;3.08;1.17;;;;;;;13.02;100.00;101344.09;5026490;28;20398;-48
2022/08/12 00:52:06;;;;;;;4.65;1.30;;;;;;;13.00;100.00;101332.81;5016419;28;20091;-53
2022/08/12 00:54:43;;;;;;;0.75;0.30;;;;;;;12.97;100.00;101336.66;5023182;28;20025;-49
2022/08/12 00:57:12;;;;;;;1.65;0.80;;;;;;;12.95;100.00;101335.19;5018269;28;20087;-52
2022/08/12 00:59:47;;;;;;;0.90;0.60;;;;;;;12.87;100.00;101334.28;5013683;28;20026;-52
2022/08/12 01:02:21;;;;;;;0.63;0.50;;;;;;;12.80;100.00;101332.56;5017766;28;20059;-48
2022/08/12 01:13:09;;;;;;;0.88;0.70;;;;;;;12.52;100.00;101319.06;5020244;28;20075;-47
2022/08/12 01:15:37;;;;;;;2.25;0.77;;;;;;;12.57;100.00;101327.31;5025283;28;20479;-54
2022/08/12 01:18:05;;;;;;;1.30;0.68;;;;;;;12.62;100.00;101319.63;5015329;28;20442;-50
2022/08/12 01:20:51;;;;;;;0.73;0.70;;;;;;;12.70;100.00;101318.69;5026885;28;20036;-47
2022/08/12 01:23:44;;;;;;;1.27;0.57;;;;;;;12.73;100.00;101327.16;5019567;28;20127;-47
2022/08/12 01:26:15;;;;;;;0.90;0.47;;;;;;;12.73;100.00;101315.69;5020906;28;20033;-50
2022/08/12 01:28:42;;;;;;;0.57;0.50;;;;;;;12.71;100.00;101315.88;5017838;28;20474;-49
2022/08/12 01:31:10;;;;;;;0.68;0.52;;;;;;;12.66;100.00;101310.28;5022244;28;20143;-48
2022/08/12 01:33:45;;;;;;;0.75;0.57;;;;;;;12.61;100.00;101310.00;5024729;28;20554;-51
2022/08/12 01:36:13;;;;;;;0.65;0.65;;;;;;;12.52;100.00;101308.44;5017818;28;20048;-51
2022/08/12 01:38:42;;;;;;;5.35;0.50;;;;;;;12.41;100.00;101307.88;5028282;28;20021;-52
2022/08/12 01:41:12;;;;;;;4.80;0.38;;;;;;;12.34;100.00;101306.13;5011311;28;20033;-50
2022/08/12 01:43:39;;;;;;;3.50;0.50;;;;;;;12.28;100.00;101305.03;5021580;28;20026;-50
2022/08/12 01:46:11;;;;;;;1.27;0.50;;;;;;;12.27;100.00;101300.72;5022466;28;20125;-50
2022/08/12 01:49:06;;;;;;;2.40;0.40;;;;;;;12.24;100.00;101298.44;5019227;28;20175;-48
2022/08/12 01:51:42;;;;;;;1.13;0.70;;;;;;;12.20;100.00;101289.16;5014971;28;20049;-52
2022/08/12 01:54:16;;;;;;;1.17;0.40;;;;;;;12.16;100.00;101290.56;5013804;28;20033;-52
2022/08/12 01:57:09;;;;;;;1.77;0.50;;;;;;;12.09;100.00;101282.47;5016813;28;20093;-53
2022/08/12 01:59:57;;;;;;;0.85;0.85;;;;;;;12.04;100.00;101278.69;5023515;28;20454;-48
2022/08/12 02:02:29;;;;;;;0.45;0.28;;;;;;;11.99;100.00;101284.56;5023093;28;20033;-50
2022/08/12 02:11:16;;;;;;;8.80;0.50;;;;;;;11.93;100.00;101278.13;5022956;28;20075;-54
2022/08/12 02:13:44;;;;;;;0.70;0.70;;;;;;;11.93;100.00;101270.16;5023456;28;20064;-49
2022/08/12 02:16:37;;;;;;;2.03;0.93;;;;;;;11.90;100.00;101267.88;5013908;28;20045;-52
2022/08/12 02:19:45;;;;;;;2.15;1.30;;;;;;;11.85;100.00;101264.91;5018696;28;20039;-52
2022/08/12 02:22:29;;;;;;;2.92;0.73;;;;;;;11.83;100.00;101255.44;5061795;28;20036;-50
2022/08/12 02:25:26;;;;;;;0.35;0.30;;;;;;;11.79;100.00;101254.97;5014355;28;20073;-54
2022/08/12 02:27:53;;;;;;;2.05;0.80;;;;;;;11.77;100.00;101260.47;5013973;28;20583;-50
2022/08/12 02:30:21;;;;;;;3.58;0.65;;;;;;;11.76;100.00;101258.00;5027123;28;20025;-51
2022/08/12 02:32:49;;;;;;;4.85;0.52;;;;;;;11.81;100.00;101252.97;5023898;28;20449;-51
2022/08/12 02:35:18;;;;;;;1.30;1.13;;;;;;;11.84;100.00;101257.09;5021002;28;20037;-54
2022/08/12 02:37:45;;;;;;;1.25;0.80;;;;;;;11.81;100.00;101257.47;5027691;28;20033;-54
2022/08/12 02:40:13;;;;;;;1.00;0.50;;;;;;;11.76;100.00;101253.50;5015406;28;20064;-53
2022/08/12 02:43:04;;;;;;;0.40;0.40;;;;;;;11.73;100.00;101255.69;5016232;28;20049;-52
2022/08/12 02:45:44;;;;;;;0.85;0.70;;;;;;;11.68;100.00;101260.72;5010131;28;20117;-53
2022/08/12 02:48:16;;;;;;;1.67;0.73;;;;;;;11.62;100.00;101256.13;5008684;28;20030;-51
2022/08/12 02:50:48;;;;;;;5.22;0.70;;;;;;;11.54;100.00;101262.34;5021961;28;20029;-51
2022/08/12 02:53:16;;;;;;;1.98;0.77;;;;;;;11.50;100.00;101261.03;5021270;28;20032;-52
2022/08/12 02:55:44;;;;;;;4.45;0.93;;;;;;;11.42;100.00;101259.25;5023437;28;20025;-48
2022/08/12 02:58:10;;;;;;;0.68;0.55;;;;;;;11.34;100.00;101251.38;5017101;28;20420;-53
2022/08/12 03:00:37;;;;;;;0.77;0.32;;;;;;;11.28;100.00;101250.25;5019203;28;20025;-54
2022/08/12 03:03:06;;;;;;;2.58;1.33;;;;;;;11.27;100.00;101248.56;5022156;28;20120;-51
2022/08/12 03:05:35;;;;;;;1.75;0.77;;;;;;;11.26;100.00;101241.63;5020816;28;20120;-52
2022/08/12 03:08:03;;;;;;;3.03;0.55;;;;;;;11.27;100.00;101251.22;5012127;28;20474;-50
2022/08/12 03:10:34;;;;;;;2.03;0.43;;;;;;;11.26;100.00;101254.09;5021375;28;20038;-48
2022/08/12 03:13:02;;;;;;;1.30;0.32;;;;;;;11.26;100.00;101251.44;5018666;28;20076;-52
2022/08/12 03:15:29;;;;;;;0.90;0.80;;;;;;;11.25;100.00;101249.75;5020097;28;20516;-52
2022/08/12 03:18:13;;;;;;;1.05;0.80;;;;;;;11.24;100.00;101248.94;5023668;28;20428;-50
2022/08/12 03:20:41;;;;;;;3.83;0.40;;;;;;;11.24;100.00;101240.16;5018581;28;20024;-53
2022/08/12 03:23:12;;;;;;;2.92;0.77;;;;;;;11.27;100.00;101248.56;5020193;28;20670;-53
2022/08/12 03:25:42;;;;;;;0.88;0.77;;;;;;;11.29;100.00;101240.44;5014207;28;20034;-51
2022/08/12 03:28:10;;;;;;;5.15;0.93;;;;;;;11.30;100.00;101245.56;5016709;28;20118;-53
2022/08/12 03:30:37;;;;;;;1.20;0.60;;;;;;;11.29;100.00;101243.91;5016414;28;20026;-48
2022/08/12 03:33:04;;;;;;;0.73;0.70;;;;;;;11.30;100.00;101240.25;5023279;28;20041;-51
2022/08/12 03:35:34;;;;;;;1.55;0.73;;;;;;;11.32;100.00;101237.44;5010970;28;20161;-52
2022/08/12 03:38:04;;;;;;;3.83;0.98;;;;;;;11.31;100.00;101249.06;5017510;28;20379;-51
2022/08/12 04:02:45;;;;;;;4.68;0.82;;;;;;;10.91;100.00;101254.44;5024193;28;20056;-52
2022/08/12 04:05:11;;;;;;;9.82;0.82;;;;;;;10.91;100.00;101249.13;5017309;28;20068;-51
2022/08/12 04:07:37;;;;;;;1.63;0.60;;;;;;;10.95;100.00;101246.16;5016553;28;20026;-51
2022/08/12 04:10:04;;;;;;;1.48;0.88;;;;;;;10.99;100.00;101247.44;5022351;28;20026;-54
2022/08/12 04:15:17;;;;;;;1.02;0.93;;;;;;;10.88;100.00;101240.69;5020502;28;20103;-51
2022/08/12 04:17:43;;;;;;;1.45;0.70;;;;;;;10.85;100.00;101241.88;5018681;28;20029;-50
2022/08/12 04:20:12;;;;;;;0.73;0.70;;;;;;;10.85;100.00;101241.88;5021235;28;20059;-52
2022/08/12 04:22:37;;;;;;;0.73;0.73;;;;;;;10.85;100.00;101249.00;5013697;28;20116;-52
2022/08/12 04:25:03;;;;;;;0.60;0.60;;;;;;;10.86;100.00;101254.13;5021147;28;20151;-50
2022/08/12 04:27:30;;;;;;;0.82;0.80;;;;;;;10.92;100.00;101249.97;5015018;28;20037;-50
2022/08/12 04:29:57;;;;;;;0.57;0.57;;;;;;;10.91;100.00;101258.91;5009460;28;20053;-52
2022/08/12 04:32:23;;;;;;;4.65;0.60;;;;;;;10.88;100.00;101254.78;5009684;28;20022;-50
2022/08/12 04:34:50;;;;;;;2.53;0.82;;;;;;;10.86;100.00;101250.66;5022742;28;20116;-52
2022/08/12 04:37:15;;;;;;;1.30;1.02;;;;;;;10.84;100.00;101250.84;5018971;28;20029;-48
2022/08/12 04:39:43;;;;;;;2.17;1.10;;;;;;;10.82;100.00;101242.22;5016747;28;20025;-48
2022/08/12 04:42:08;;;;;;;5.22;0.90;;;;;;;10.79;100.00;101255.84;5021274;28;20068;-49
2022/08/12 04:44:34;;;;;;;2.15;1.08;;;;;;;10.76;100.00;101252.69;5017341;28;20109;-52
2022/08/12 04:46:59;;;;;;;0.88;0.80;;;;;;;10.74;100.00;101246.72;5012574;28;20116;-54
2022/08/12 04:49:26;;;;;;;1.35;0.98;;;;;;;10.72;100.00;101248.75;5025392;28;20546;-51
2022/08/12 04:51:52;;;;;;;2.38;1.17;;;;;;;10.70;100.00;101248.91;5017318;28;20055;-54
2022/08/12 04:54:19;;;;;;;1.13;0.75;;;;;;;10.70;100.00;101254.22;5035340;28;20479;-51
2022/08/12 04:56:44;;;;;;;1.02;0.98;;;;;;;10.69;100.00;101248.09;5018914;28;20034;-52
2022/08/12 04:59:10;;;;;;;3.85;1.48;;;;;;;10.68;100.00;101240.28;5021789;28;20395;-54
2022/08/12 05:01:36;;;;;;;6.18;0.90;;;;;;;10.67;100.00;101250.09;5021283;28;20091;-52
2022/08/12 05:04:02;;;;;;;10.73;1.60;;;;;;;10.67;100.00;101252.75;5018111;28;20069;-54
2022/08/12 05:06:27;;;;;;;1.50;0.50;;;;;;;10.67;100.00;101254.56;5027081;28;20475;-51
2022/08/12 05:08:54;;;;;;;1.48;0.95;;;;;;;10.68;100.00;101245.59;5019057;28;20112;-53
2022/08/12 05:11:24;;;;;;;0.75;0.63;;;;;;;10.68;100.00;101250.91;5021640;28;20038;-52
2022/08/12 05:13:52;;;;;;;2.85;1.33;;;;;;;10.70;100.00;101255.03;5018893;28;20121;-54
2022/08/12 05:16:17;;;;;;;0.63;0.63;;;;;;;10.73;100.00;101253.03;5018365;28;20376;-54
2022/08/12 05:18:42;;;;;;;1.50;0.65;;;;;;;10.76;100.00;101256.16;5023313;28;20026;-51
2022/08/12 05:21:08;;;;;;;1.45;0.60;;;;;;;10.79;100.00;101250.53;5023205;28;20119;-52
2022/08/12 05:23:38;;;;;;;1.55;0.88;;;;;;;10.85;100.00;101246.38;5020607;28;20227;-51
2022/08/12 05:26:05;;;;;;;1.33;0.98;;;;;;;10.92;100.00;101255.28;5017204;28;20489;-54
2022/08/12 05:28:31;;;;;;;1.95;1.08;;;;;;;10.99;100.00;101253.56;5017619;28;20442;-50
2022/08/12 05:30:57;;;;;;;3.03;1.08;;;;;;;11.04;100.00;101253.03;5020542;28;20091;-54
2022/08/12 05:33:36;;;;;;;2.88;0.80;;;;;;;11.08;100.00;101262.31;5026983;28;20211;-54
2022/08/12 05:36:06;;;;;;;6.28;0.80;;;;;;;11.11;100.00;101257.47;5016567;28;20029;-49
2022/08/12 05:41:19;;;;;;;3.72;0.75;;;;;;;11.26;100.00;101262.88;5022493;28;20060;-53
2022/08/12 05:43:52;;;;;;;2.63;0.80;;;;;;;11.37;100.00;101266.13;5026263;28;20033;-54
2022/08/12 05:46:19;;;;;;;0.73;0.55;;;;;;;11.48;100.00;101268.34;5016489;28;20390;-52
2022/08/12 05:48:45;;;;;;;0.93;0.43;;;;;;;11.55;100.00;101262.16;5023687;28;20036;-53
2022/08/12 05:51:11;;;;;;;1.70;0.95;;;;;;;11.60;100.00;101258.97;5031346;28;20029;-54
2022/08/12 05:53:38;;;;;;;2.55;0.93;;;;;;;11.67;100.00;101261.72;5020927;28;20122;-51
2022/08/12 05:56:04;;;;;;;1.73;0.75;;;;;;;11.70;100.00;101267.50;5026125;28;20407;-50
2022/08/12 05:58:29;;;;;;;3.03;1.25;;;;;;;11.81;100.00;101270.75;5021845;28;20083;-50
2022/08/12 06:00:55;;;;;;;1.73;1.25;;;;;;;11.84;100.00;101273.03;5016371;28;20041;-54
2022/08/12 06:03:21;;;;;;;6.53;1.52;;;;;;;11.89;100.00;101274.16;5025136;28;20049;-53
2022/08/12 06:05:48;;;;;;;1.27;0.52;;;;;;;12.00;100.00;101272.91;5028884;28;20036;-53
2022/08/12 06:08:16;;;;;;;4.78;1.25;;;;;;;12.14;100.00;101274.78;5026951;28;20037;-53
2022/08/12 06:10:41;;;;;;;3.15;0.90;;;;;;;12.26;100.00;101277.78;5026531;28;20116;-51
2022/08/12 06:13:07;;;;;;;5.15;2.25;;;;;;;12.34;100.00;101274.22;5025329;28;20137;-52
2022/08/12 06:15:39;;;;;;;6.53;1.10;;;;;;;12.44;100.00;101269.44;5019176;28;20026;-53
2022/08/12 06:18:06;;;;;;;;;;;;;;;12.60;100.00;101271.94;5025424;28;20067;-53
2022/08/12 06:20:32;;;;;;;2.83;0.90;;;;;;;12.76;100.00;101268.25;5018465;28;19927;-49
2022/08/12 06:22:58;;;;;;;4.97;1.13;;;;;;;12.90;100.00;101263.88;5023012;28;20096;-53
2022/08/12 06:25:26;;;;;;;2.28;1.95;;;;;;;13.05;100.00;101255.88;5026112;28;20037;-51
2022/08/12 06:27:52;;;;;;;4.00;1.88;;;;;;;13.16;100.00;101255.38;5024147;28;20104;-53
2022/08/12 06:30:19;;;;;;;1.23;0.95;;;;;;;13.32;100.00;101251.69;5021938;28;20116;-52
2022/08/12 06:32:46;;;;;;;3.72;2.08;;;;;;;13.48;100.00;101232.78;5025035;28;20036;-50
2022/08/12 06:35:12;;;;;;;1.88;1.40;;;;;;;13.66;100.00;101237.63;5024035;28;20121;-51
2022/08/12 06:37:43;;;;;;;4.40;1.40;;;;;;;13.83;100.00;101234.69;5022243;28;20030;-52
2022/08/12 06:40:09;;;;;;;3.47;1.50;;;;;;;13.99;100.00;101238.88;5013016;28;20034;-54
2022/08/12 06:42:50;;;;;;;2.20;1.40;;;;;;;14.26;100.00;101239.88;5022554;28;20025;-50
2022/08/12 06:45:18;;;;;;;2.50;1.63;;;;;;;14.56;100.00;101251.13;5013260;28;20021;-54
2022/08/12 06:47:45;;;;;;;1.40;0.98;;;;;;;14.79;100.00;101235.66;5012524;28;20385;-55
2022/08/12 06:50:14;;;;;;;4.22;1.77;;;;;;;14.98;100.00;101231.38;5020690;28;20029;-52
2022/08/12 06:52:40;;;;;;;2.88;1.83;;;;;;;15.39;100.00;101232.28;5018022;28;20032;-51
2022/08/12 06:55:06;;;;;;;5.57;2.28;;;;;;;15.72;100.00;101226.97;5017376;28;20033;-50
2022/08/12 06:57:31;;;;;;;4.45;1.10;;;;;;;16.07;100.00;101219.50;5022080;28;20025;-53
2022/08/12 06:59:57;;;;;;;4.00;1.20;;;;;;;16.38;100.00;101226.00;5032448;28;20449;-52
2022/08/12 07:02:24;;;;;;;3.05;1.33;;;;;;;16.53;100.00;101223.88;5021768;28;20056;-50
2022/08/12 07:04:51;;;;;;;2.25;1.20;;;;;;;16.75;100.00;101216.38;5018525;28;20104;-48
2022/08/12 07:07:17;;;;;;;2.20;0.88;;;;;;;17.03;100.00;101211.72;5016062;28;20030;-54
2022/08/12 07:09:43;;;;;;;1.05;0.75;;;;;;;17.29;100.00;101214.19;5021456;28;20064;-55
2022/08/12 07:12:18;;;;;;;0.93;0.82;;;;;;;17.51;100.00;101211.97;5016912;28;20056;-52
2022/08/12 07:14:43;;;;;;;1.85;1.33;;;;;;;17.87;100.00;101199.72;5017768;28;20443;-54
2022/08/12 07:17:09;;;;;;;2.10;1.10;;;;;;;18.13;100.00;101205.84;5020903;28;20030;-50
2022/08/12 07:19:35;;;;;;;1.60;0.70;;;;;;;18.46;100.00;101197.41;5022900;28;20604;-51
2022/08/12 07:22:05;;;;;;;3.33;0.70;;;;;;;18.56;100.00;101192.31;5022030;28;20052;-51
2022/08/12 07:24:31;;;;;;;1.92;0.77;;;;;;;18.86;100.00;101188.84;5016548;28;20044;-51
2022/08/12 07:26:57;;;;;;;9.32;1.35;;;;;;;18.95;100.00;101193.66;5021656;28;20040;-51
2022/08/12 07:29:24;;;;;;;2.40;0.75;;;;;;;19.12;100.00;101188.44;5020059;28;20026;-52
2022/08/12 07:31:50;;;;;;;2.50;0.47;;;;;;;19.36;100.00;101186.63;5021428;28;20033;-51
2022/08/12 07:34:16;;;;;;;2.42;0.40;;;;;;;19.66;100.00;101180.31;5023173;28;20045;-55
2022/08/12 07:36:41;;;;;;;3.03;0.80;;;;;;;19.83;100.00;101175.91;5015549;28;20094;-54
2022/08/12 07:39:06;;;;;;;2.20;1.10;;;;;;;19.99;100.00;101170.84;5022904;28;20031;-54
2022/08/12 07:41:32;;;;;;;4.88;0.75;;;;;;;20.11;100.00;101174.34;5026189;28;20085;-53
2022/08/12 07:44:01;;;;;;;2.40;0.88;;;;;;;20.26;100.00;101177.34;5012398;28;20037;-53
2022/08/12 07:46:30;;;;;;;2.65;1.35;;;;;;;20.45;100.00;101175.28;5024274;28;20029;-53
2022/08/12 07:49:05;;;;;;;2.17;0.70;;;;;;;20.72;100.00;101171.22;5015768;28;20022;-55
2022/08/12 07:51:32;;;;;;;1.08;0.35;;;;;;;20.88;100.00;101173.13;5020592;28;20382;-53
2022/08/12 07:53:59;;;;;;;0.82;0.50;;;;;;;21.03;100.00;101164.50;5023051;28;20038;-52
2022/08/12 07:56:26;;;;;;;0.80;0.45;;;;;;;21.24;100.00;101165.63;5024365;28;20056;-52
2022/08/12 07:58:52;;;;;;;0.90;0.50;;;;;;;21.41;100.00;101165.69;5019137;28;20096;-55
2022/08/12 08:01:20;;;;;;;1.63;0.57;;;;;;;21.55;100.00;101159.66;5021342;28;20064;-53
2022/08/12 08:06:33;;;;;;;3.05;0.68;;;;;;;21.97;100.00;101147.56;5021489;28;20549;-51
2022/08/12 08:09:02;;;;;;;1.08;0.68;;;;;;;22.17;100.00;101152.38;5018987;28;20049;-55
2022/08/12 08:14:11;;;;;;;2.40;0.45;;;;;;;22.57;100.00;101145.84;5023206;28;20053;-50
2022/08/12 08:16:39;;;;;;;1.25;0.50;;;;;;;22.65;100.00;101138.09;5015638;28;20443;-51
2022/08/12 08:19:05;;;;;;;1.83;0.47;;;;;;;22.89;100.00;101145.06;5022048;28;20045;-53
2022/08/12 08:21:34;;;;;;;2.13;0.85;;;;;;;23.03;100.00;101140.91;5018862;28;20060;-48
2022/08/12 08:24:15;;;;;;;2.95;0.55;;;;;;;23.20;100.00;101136.13;5018310;28;20029;-48
2022/08/12 08:26:42;;;;;;;0.50;0.35;;;;;;;23.41;100.00;101141.69;5022767;28;20029;-49
2022/08/12 08:29:07;;;;;;;6.68;0.35;;;;;;;23.51;100.00;101137.16;5025790;28;20037;-52
2022/08/12 08:31:34;;;;;;;4.13;0.65;;;;;;;23.68;100.00;101137.00;5019608;28;20451;-50
2022/08/12 08:34:00;;;;;;;3.60;0.43;;;;;;;23.92;100.00;101133.88;5023433;28;20692;-49
2022/08/12 08:36:26;;;;;;;4.40;0.50;;;;;;;24.14;100.00;101131.00;5024955;28;20034;-53
2022/08/12 08:38:52;;;;;;;1.15;0.47;;;;;;;24.40;100.00;101134.59;5015697;28;20040;-51
2022/08/12 08:44:01;;;;;;;2.08;0.60;;;;;;;24.58;100.00;101126.00;5017850;28;20040;-52
2022/08/12 08:46:27;;;;;;;3.35;0.40;;;;;;;24.65;100.00;101133.84;5017522;28;20026;-52
2022/08/12 08:48:53;;;;;;;2.67;1.42;;;;;;;24.81;100.00;101126.56;5024907;28;20033;-55
2022/08/12 08:51:19;;;;;;;0.55;0.40;;;;;;;24.96;100.00;101131.16;5026054;28;20021;-53
2022/08/12 08:53:45;;;;;;;1.55;0.55;;;;;;;25.19;100.00;101118.97;5026095;28;20029;-50
2022/08/12 08:56:10;;;;;;;6.85;1.35;;;;;;;25.37;100.00;101115.66;5024717;28;20104;-53
2022/08/12 08:58:39;;;;;;;3.47;0.50;;;;;;;25.35;100.00;101131.44;5023623;28;20045;-52
2022/08/12 09:01:04;;;;;;;2.10;0.52;;;;;;;25.38;100.00;101122.75;5027976;28;20414;-50
2022/08/12 09:03:30;;;;;;;4.25;1.05;;;;;;;25.61;100.00;101120.53;5020227;28;20033;-53
2022/08/12 09:05:55;;;;;;;3.10;1.38;;;;;;;25.89;100.00;101117.19;5020082;28;20074;-51
2022/08/12 09:08:21;;;;;;;2.00;0.50;;;;;;;26.14;100.00;101115.41;5025402;28;20080;-56
2022/08/12 09:10:47;;;;;;;1.02;0.63;;;;;;;26.17;100.00;101112.13;5021570;28;20029;-53
2022/08/12 09:13:28;;;;;;;1.60;0.47;;;;;;;26.33;100.00;101121.00;5024912;28;20485;-55
2022/08/12 09:15:53;;;;;;;1.17;0.63;;;;;;;26.46;100.00;101114.13;5018478;28;20450;-49
2022/08/12 09:18:19;;;;;;;3.80;0.40;;;;;;;26.60;100.00;101108.91;5025134;28;20040;-54
2022/08/12 09:20:47;;;;;;;3.90;0.70;;;;;;;26.75;100.00;101106.09;5020505;28;20409;-50
2022/08/12 09:23:12;;;;;;;8.00;1.10;;;;;;;26.94;100.00;101103.47;5018877;28;20047;-54
2022/08/12 09:25:40;;;;;;;1.45;0.90;;;;;;;26.97;100.00;101108.34;5020104;28;20030;-50
2022/08/12 09:28:09;;;;;;;4.30;0.65;;;;;;;27.04;100.00;101100.66;5026387;28;20478;-53
2022/08/12 09:30:36;;;;;;;1.35;0.50;;;;;;;27.23;100.00;101095.31;5012449;28;20575;-49
2022/08/12 09:33:02;;;;;;;0.55;0.43;;;;;;;27.37;100.00;101101.72;5020764;28;20029;-48
2022/08/12 09:35:32;;;;;;;2.83;0.50;;;;;;;27.49;99.66;101093.13;5021033;28;20025;-49
2022/08/12 09:38:00;;;;;;;1.10;0.30;;;;;;;27.65;98.35;101093.78;5021187;28;20472;-51
2022/08/12 09:40:27;;;;;;;3.13;0.82;;;;;;;27.78;98.34;101089.53;5024557;28;20059;-53
2022/08/12 09:45:36;;;;;;;1.42;0.35;;;;;;;27.90;94.30;101095.38;5024588;28;20601;-49
2022/08/12 09:48:07;;;;;;;3.65;0.35;;;;;;;28.03;93.47;101099.31;5021594;28;20022;-50
2022/08/12 09:50:33;;;;;;;1.00;0.30;;;;;;;28.27;91.19;101091.09;5017510;28;20025;-52
2022/08/12 09:53:14;;;;;;;4.45;0.20;;;;;;;28.34;88.04;101087.97;5020682;28;20041;-51
2022/08/12 09:55:46;;;;;;;7.75;1.30;;;;;;;28.37;86.50;101093.66;5024390;28;20450;-52
2022/08/12 09:58:12;;;;;;;0.80;0.73;;;;;;;28.59;83.13;101093.06;5016838;28;20049;-54
2022/08/12 10:00:38;;;;;;;1.48;0.20;;;;;;;28.90;81.73;101093.34;5020951;28;20377;-54
2022/08/12 10:03:09;;;;;;;0.70;0.43;;;;;;;28.93;80.35;101090.03;5020234;28;20037;-52
2022/08/12 10:05:39;;;;;;;1.13;0.35;;;;;;;28.97;79.62;101087.53;5023964;28;20080;-54
2022/08/12 10:08:09;;;;;;;0.63;0.57;;;;;;;29.13;78.85;101075.22;5019600;28;20155;-53
2022/08/12 10:13:40;;;;;;;3.60;0.80;;;;;;;29.25;78.67;101079.38;5017603;28;20037;-52
2022/08/12 10:16:05;;;;;;;2.25;1.05;;;;;;;29.18;75.15;101068.06;5024194;28;20044;-56
2022/08/12 10:18:31;;;;;;;0.65;0.40;;;;;;;29.25;74.56;101077.47;5024370;28;20029;-53
2022/08/12 10:20:58;;;;;;;3.42;0.80;;;;;;;29.44;73.52;101068.38;5025319;28;20026;-51
2022/08/12 10:23:24;;;;;;;2.38;0.73;;;;;;;29.57;72.12;101067.56;5020405;28;20467;-49
2022/08/12 10:31:17;;;;;;;4.15;0.95;;;;;;;29.98;68.56;101066.72;5013740;28;20039;-52
2022/08/12 10:33:43;;;;;;;2.38;0.80;;;;;;;29.97;66.33;101057.72;5020124;28;20029;-54
2022/08/12 10:36:11;;;;;;;1.88;0.85;;;;;;;30.10;65.06;101069.72;5026596;28;20044;-52
2022/08/12 10:38:36;;;;;;;0.63;0.40;;;;;;;30.10;65.42;101053.31;5014933;28;20080;-52
2022/08/12 10:43:46;;;;;;;0.63;0.60;;;;;;;30.35;65.77;101048.38;5016621;28;20045;-51
2022/08/12 10:46:16;;;;;;;0.50;0.50;;;;;;;30.58;64.89;101057.41;5022610;28;20382;-55
2022/08/12 10:48:47;;;;;;;0.40;0.40;;;;;;;30.60;62.27;101047.75;5020845;28;20120;-47
2022/08/12 10:51:13;;;;;;;;;;;;;;;30.38;56.89;101037.63;5021742;28;20025;-54
2022/08/12 10:53:39;;;;;;;4.55;1.42;;;;;;;30.47;61.56;101037.69;5029480;28;19917;-50
2022/08/12 10:56:06;;;;;;;1.73;0.55;;;;;;;30.75;61.68;101043.81;5020519;28;20529;-49
2022/08/12 10:58:35;;;;;;;1.13;0.20;;;;;;;30.93;60.31;101039.28;5024601;28;20383;-53
2022/08/12 11:01:02;;;;;;;5.63;0.40;;;;;;;31.11;59.49;101036.59;5020083;28;20056;-54
2022/08/12 11:03:33;;;;;;;2.05;0.68;;;;;;;31.22;57.95;101029.72;5019908;28;20041;-54
2022/08/12 11:05:59;;;;;;;1.92;1.10;;;;;;;31.12;57.96;101027.28;5016680;28;20030;-53
2022/08/12 11:08:26;;;;;;;2.85;1.20;;;;;;;31.17;57.34;101029.88;5020210;28;20034;-53
2022/08/12 11:10:52;;;;;;;3.58;0.43;;;;;;;31.25;57.22;101020.88;5018565;28;20144;-50
2022/08/12 11:13:19;;;;;;;4.63;0.60;;;;;;;31.44;56.27;101023.34;5014189;28;20123;-55
2022/08/12 11:15:44;;;;;;;0.32;0.32;;;;;;;31.62;54.42;101018.72;5018785;28;20057;-51
2022/08/12 11:18:13;;;;;;;1.02;0.50;;;;;;;31.63;54.03;101017.59;5022165;28;20123;-56
2022/08/12 11:20:39;;;;;;;2.40;0.40;;;;;;;31.71;53.59;101005.84;5018119;28;20025;-48
2022/08/12 11:23:04;;;;;;;0.38;0.28;;;;;;;31.82;52.93;101007.13;5025053;28;20022;-56
2022/08/12 11:25:30;;;;;;;3.13;0.45;;;;;;;31.89;51.59;101015.69;5023271;28;20032;-56
2022/08/12 11:27:55;;;;;;;0.55;0.32;;;;;;;32.07;50.40;101023.94;5018226;28;20037;-58
2022/08/12 11:30:20;;;;;;;1.23;0.40;;;;;;;31.93;50.71;101013.13;5025300;28;20410;-50
2022/08/12 11:32:46;;;;;;;4.03;0.90;;;;;;;31.94;50.77;101003.78;5032852;28;20082;-58
2022/08/12 11:35:11;;;;;;;5.60;1.05;;;;;;;31.93;51.04;101013.97;5021616;28;20473;-50
2022/08/12 11:37:37;;;;;;;4.47;0.50;;;;;;;32.03;51.67;101003.78;5013960;28;20030;-57
2022/08/12 11:40:05;;;;;;;2.20;0.73;;;;;;;32.23;51.18;101005.84;5022517;28;20025;-52
2022/08/12 11:42:30;;;;;;;2.58;0.75;;;;;;;32.38;52.01;101013.56;5023075;28;20414;-57
2022/08/12 11:44:56;;;;;;;1.63;0.70;;;;;;;32.45;51.46;101001.28;5025626;28;20033;-57
2022/08/12 11:47:21;;;;;;;0.82;0.75;;;;;;;32.53;51.26;100997.78;5017916;28;20037;-54
2022/08/12 11:49:46;;;;;;;2.72;1.60;;;;;;;32.68;50.85;100996.41;5021062;28;20493;-54
2022/08/12 11:52:12;;;;;;;3.60;1.02;;;;;;;32.82;50.70;100998.97;5021515;28;20025;-50
2022/08/12 11:54:37;;;;;;;0.95;0.68;;;;;;;32.94;48.67;101002.63;5021453;28;20025;-57
2022/08/12 11:57:03;;;;;;;1.55;0.68;;;;;;;32.89;48.14;100999.22;5026686;28;20116;-60
2022/08/12 11:59:31;;;;;;;0.80;0.73;;;;;;;32.79;47.31;100995.75;5020607;28;20049;-59
2022/08/12 12:01:56;;;;;;;0.45;0.45;;;;;;;32.96;46.51;100994.84;5029655;28;20104;-56
2022/08/12 12:04:21;;;;;;;1.20;0.77;;;;;;;32.87;45.21;100991.34;5020685;28;20604;-58
2022/08/12 12:06:47;;;;;;;1.35;0.68;;;;;;;32.85;45.06;100981.81;5023914;28;20029;-58
2022/08/12 12:09:12;;;;;;;1.15;0.77;;;;;;;33.14;45.14;100976.34;5016956;28;20105;-55
2022/08/12 12:11:37;;;;;;;2.08;0.40;;;;;;;33.48;45.60;100970.97;5026256;28;20096;-52
2022/08/12 12:14:03;;;;;;;0.70;0.65;;;;;;;33.48;43.86;100962.72;5026670;28;20120;-53
2022/08/12 12:16:28;;;;;;;0.52;0.40;;;;;;;33.60;44.34;100960.09;5023844;28;20021;-50
2022/08/12 12:18:54;;;;;;;2.00;0.40;;;;;;;33.70;43.01;100961.63;5021866;28;20022;-51
2022/08/12 12:21:19;;;;;;;3.78;1.35;;;;;;;33.38;42.76;100956.50;5019076;28;20495;-51
2022/08/12 12:23:44;;;;;;;1.77;1.05;;;;;;;33.49;42.32;100967.91;5014735;28;20253;-50
2022/08/12 12:26:10;;;;;;;2.40;0.38;;;;;;;33.51;42.57;100943.66;5019168;28;20028;-54
2022/08/12 12:28:37;;;;;;;7.43;1.90;;;;;;;33.75;43.71;100951.25;5019095;28;20356;-54
2022/08/12 12:31:03;;;;;;;1.75;0.52;;;;;;;33.94;43.01;100955.44;5029111;28;20050;-54
2022/08/12 12:33:28;;;;;;;1.83;0.73;;;;;;;33.82;43.08;100942.44;5029645;28;20079;-58
2022/08/12 12:35:54;;;;;;;2.05;0.25;;;;;;;33.86;43.88;100938.66;5021086;28;20026;-59
2022/08/12 12:38:19;;;;;;;0.85;0.40;;;;;;;33.86;43.79;100948.88;5020025;28;20044;-59
2022/08/12 12:40:46;;;;;;;1.60;0.35;;;;;;;34.03;44.13;100943.22;5014490;28;20435;-55
2022/08/12 12:43:12;;;;;;;1.13;0.70;;;;;;;34.08;43.97;100937.53;5022418;28;20121;-55
2022/08/12 12:45:39;;;;;;;1.05;0.28;;;;;;;33.99;42.82;100924.97;5020025;28;20072;-57
2022/08/12 12:48:16;;;;;;;0.65;0.45;;;;;;;33.81;43.12;100919.63;5018833;28;20116;-58
2022/08/12 12:50:43;;;;;;;2.38;0.60;;;;;;;33.99;43.66;100925.75;5022661;28;21552;-57
2022/08/12 12:53:09;;;;;;;2.00;0.80;;;;;;;34.23;44.02;100927.00;5028934;28;20141;-55
2022/08/12 12:55:36;;;;;;;2.90;0.57;;;;;;;34.33;42.17;100923.81;5018441;28;20052;-58
2022/08/12 12:58:09;;;;;;;1.50;0.63;;;;;;;34.22;42.17;100906.94;5023978;28;20049;-59
2022/08/12 13:00:35;;;;;;;4.47;0.80;;;;;;;34.23;42.53;100916.81;5025054;28;20398;-57
2022/08/12 13:03:01;;;;;;;1.15;0.60;;;;;;;34.42;42.72;100904.47;5012970;28;20033;-56
2022/08/12 13:05:29;;;;;;;0.95;0.55;;;;;;;34.71;43.15;100906.22;5021001;28;20048;-53
2022/08/12 13:07:56;;;;;;;1.63;0.65;;;;;;;34.92;41.37;100911.59;5018928;28;20117;-53
2022/08/12 13:10:22;;;;;;;2.25;1.50;;;;;;;34.67;41.15;100899.78;5021090;28;20447;-59
2022/08/12 13:12:51;;;;;;;1.90;0.30;;;;;;;34.58;40.87;100907.38;5027435;28;20384;-57